Meteorología y climatología de Navarra
Datos de la estación - Meteo Navarra

Estación de Etxarri-Aranatz GN

Altitud 505 m.


Datos desde el 09/11/2019 hasta el 10/11/2019 en horario solar
Los datos son PROVISIONALES

Anterior Página 1 de 1 Siguiente Descargar: Formato para Excel 2000 o superior   Formato csv   Formato para OpenOffice Calc
Fecha Temperatura Humedad relativa Radiación global Insolación Precipitación Vel. viento 10 m Vel. viento 10 m Dir. viento 10 m
ºC % W/m² s l/m² m/s km/h º
09/11/2019 0:00 6.0 89 0.0 0 0.3 3.2 11.5 327
09/11/2019 0:10 5.8 89 0.0 0 0.4 2.9 10.3 324
09/11/2019 0:20 5.7 92 0.0 0 0.1 1.4 5.0 300
09/11/2019 0:30 5.7 93 0.0 0 0.0 1.6 5.6 291
09/11/2019 0:40 5.7 94 0.0 0 0.1 1.5 5.3 288
09/11/2019 0:50 5.7 95 0.0 0 0.6 1.3 4.6 288
09/11/2019 1:00 5.6 95 0.0 0 0.2 2.0 7.1 286
09/11/2019 1:10 5.5 95 0.0 0 0.2 2.0 7.1 260
09/11/2019 1:20 5.6 96 0.0 0 0.7 2.0 7.1 287
09/11/2019 1:30 5.6 96 0.0 0 1.1 1.3 4.8 279
09/11/2019 1:40 5.6 96 0.0 0 0.4 1.8 6.3 267
09/11/2019 1:50 5.5 96 0.0 0 0.3 1.8 6.6 271
09/11/2019 2:00 5.6 96 0.0 0 0.1 1.4 5.0 289
09/11/2019 2:10 5.6 96 0.0 0 0.0 1.5 5.5 288
09/11/2019 2:20 5.8 96 0.0 0 0.0 1.7 6.0 276
09/11/2019 2:30 5.6 96 0.0 0 0.0 2.5 9.1 252
09/11/2019 2:40 5.6 96 0.0 0 0.0 2.4 8.7 259
09/11/2019 2:50 5.6 96 0.0 0 0.0 2.7 9.8 254
09/11/2019 3:00 5.6 96 0.0 0 0.0 3.6 12.9 253
09/11/2019 3:10 5.6 96 0.0 0 0.0 3.2 11.4 257
09/11/2019 3:20 5.6 96 0.0 0 0.3 2.6 9.2 259
09/11/2019 3:30 5.6 96 0.0 0 0.6 2.0 7.2 275
09/11/2019 3:40 5.6 97 0.0 0 0.3 2.2 7.9 268
09/11/2019 3:50 5.5 97 0.0 0 0.7 2.7 9.9 253
09/11/2019 4:00 5.6 96 0.0 0 0.4 2.0 7.1 288
09/11/2019 4:10 5.8 96 0.0 0 0.2 1.1 4.1 292
09/11/2019 4:20 5.9 96 0.0 0 0.1 1.3 4.8 272
09/11/2019 4:30 5.8 96 0.0 0 0.0 1.5 5.5 262
09/11/2019 4:40 5.9 97 0.0 0 0.1 2.3 8.1 245
09/11/2019 4:50 5.8 97 0.0 0 0.1 2.6 9.5 243
09/11/2019 5:00 5.7 97 0.0 0 0.3 2.4 8.6 250
09/11/2019 5:10 5.7 97 0.0 0 0.1 2.6 9.3 255
09/11/2019 5:20 5.7 97 0.0 0 0.3 1.9 6.8 257
09/11/2019 5:30 5.6 97 0.0 0 0.0 2.3 8.1 256
09/11/2019 5:40 5.6 97 0.0 0 0.0 2.6 9.4 256
09/11/2019 5:50 5.6 97 0.0 0 0.0 2.6 9.3 257
09/11/2019 6:00 5.6 96 0.0 0 0.0 2.8 10.1 262
09/11/2019 6:10 5.7 96 0.0 0 0.3 3.3 11.7 256
09/11/2019 6:20 5.6 96 0.0 0 0.1 2.4 8.6 267
09/11/2019 6:30 5.6 96 0.0 0 0.0 1.6 5.8 318
09/11/2019 6:40 5.6 96 0.0 0 0.1 1.3 4.8 308
09/11/2019 6:50 5.7 96 0.0 0 0.0 1.4 5.1 289
09/11/2019 7:00 5.6 96 0.0 0 0.1 1.7 6.0 285
09/11/2019 7:10 5.6 97 0.0 0 0.1 1.3 4.5 280
09/11/2019 7:20 5.6 97 0.0 0 0.0 1.1 4.1 329
09/11/2019 7:30 5.6 97 0.0 0 0.1 0.7 2.4 341
09/11/2019 7:40 5.6 97 0.0 0 0.1 0.5 1.7 329
09/11/2019 7:50 5.6 97 4.6 0 0.0 0.7 2.6 327
09/11/2019 8:00 5.7 97 0.1 0 0.0 1.0 3.7 285
09/11/2019 8:10 5.8 97 7.2 0 0.0 1.2 4.3 304
09/11/2019 8:20 5.8 96 17.7 0 0.0 1.0 3.5 299
09/11/2019 8:30 5.8 96 22.9 0 0.0 1.1 4.0 337
09/11/2019 8:40 5.9 97 28.4 0 0.0 0.7 2.5 14
09/11/2019 8:50 6.0 97 38.8 0 0.0 0.6 2.0 30
09/11/2019 9:00 6.2 97 60.7 0 0.0 0.2 0.8 30
09/11/2019 9:10 6.3 98 59.1 0 0.0 0.5 1.8 94
09/11/2019 9:20 6.6 98 66.6 0 0.0 0.3 1.2 91
09/11/2019 9:30 6.5 98 73.3 0 0.0 0.2 0.7 10
09/11/2019 9:40 6.6 98 100.6 0 0.0 0.2 0.6 278
09/11/2019 9:50 6.6 98 126.1 0 0.0 0.5 1.7 128
09/11/2019 10:00 6.7 98 206.1 200 0.0 0.5 1.8 44
09/11/2019 10:10 6.7 98 146.9 0 0.0 0.5 1.7 330
09/11/2019 10:20 6.8 97 225.4 208 0.0 0.8 2.8 308
09/11/2019 10:30 7.2 96 353.9 600 0.0 1.4 4.9 264
09/11/2019 10:40 7.8 93 379.2 410 0.0 1.2 4.2 288
09/11/2019 10:50 7.7 90 296.0 394 0.0 2.0 7.1 277
09/11/2019 11:00 7.8 90 256.5 266 0.0 2.3 8.3 277
09/11/2019 11:10 7.6 88 173.1 0 0.0 3.1 11.1 261
09/11/2019 11:20 7.5 86 119.5 0 0.0 3.3 11.7 266
09/11/2019 11:30 7.5 82 81.8 0 0.1 4.7 17.0 254
09/11/2019 11:40 7.1 88 82.7 0 0.3 3.3 11.7 255
09/11/2019 11:50 6.9 88 107.3 0 0.1 2.1 7.5 275
09/11/2019 12:00 7.0 88 179.1 0 0.1 1.6 5.8 275
09/11/2019 12:10 7.1 88 198.1 0 0.0 1.9 7.0 296
09/11/2019 12:20 7.2 88 192.5 0 0.0 1.7 6.3 287
09/11/2019 12:30 7.1 88 170.1 0 0.0 3.1 11.0 267
09/11/2019 12:40 7.1 87 218.1 0 0.0 3.3 12.0 267
09/11/2019 12:50 7.4 87 178.8 0 0.0 3.2 11.5 268
09/11/2019 13:00 7.5 86 208.8 0 0.0 3.6 12.8 256
09/11/2019 13:10 7.8 86 238.5 210 0.0 2.9 10.6 262
09/11/2019 13:20 7.8 84 227.8 70 0.0 2.8 10.0 268
09/11/2019 13:30 8.1 83 176.1 0 0.0 2.7 9.6 271
09/11/2019 13:40 8.0 83 56.7 0 0.1 2.5 9.1 272
09/11/2019 13:50 7.6 87 70.7 0 0.7 2.1 7.5 278
09/11/2019 14:00 7.5 89 90.9 0 0.1 1.9 6.8 294
09/11/2019 14:10 7.4 91 87.6 0 0.0 2.5 9.1 292
09/11/2019 14:20 7.4 90 68.4 0 0.0 2.4 8.6 301
09/11/2019 14:30 7.5 90 82.0 0 0.0 2.2 8.0 293
09/11/2019 14:40 7.6 90 68.0 0 0.0 2.9 10.3 293
09/11/2019 14:50 7.7 90 54.7 0 0.0 2.4 8.7 271
09/11/2019 15:00 7.6 91 42.9 0 0.0 1.5 5.5 274
09/11/2019 15:10 7.6 92 42.0 0 0.0 1.0 3.6 284
09/11/2019 15:20 7.6 93 26.7 0 0.0 0.8 3.0 290
09/11/2019 15:30 7.6 93 24.8 0 0.0 1.1 4.1 275
09/11/2019 15:40 7.7 93 24.2 0 0.0 1.1 3.8 292
09/11/2019 15:50 7.8 92 0.2 0 0.2 1.4 5.1 312
09/11/2019 16:00 7.9 91 0.0 0 0.2 1.3 4.6 316
09/11/2019 16:10 7.8 93 3.5 0 0.1 1.2 4.3 306
09/11/2019 16:20 7.6 93 0.0 0 0.0 0.7 2.4 296
09/11/2019 16:30 7.6 95 0.0 0 0.2 1.2 4.2 262
09/11/2019 16:40 7.6 95 0.0 0 0.1 1.9 6.8 259
09/11/2019 16:50 7.6 95 0.0 0 0.4 2.2 7.7 260
09/11/2019 17:00 7.7 95 0.0 0 0.1 2.0 7.1 289
09/11/2019 17:10 8.1 94 0.0 0 0.3 2.6 9.5 268
09/11/2019 17:20 7.7 95 0.0 0 0.1 2.5 8.9 266
09/11/2019 17:30 7.8 95 0.0 0 0.1 2.2 8.0 267
09/11/2019 17:40 7.8 95 0.0 0 0.2 2.2 8.0 273
09/11/2019 17:50 7.7 96 0.0 0 0.1 2.1 7.5 266
09/11/2019 18:00 7.7 96 0.0 0 0.4 1.5 5.3 283
09/11/2019 18:10 7.7 96 0.0 0 0.1 1.3 4.5 303
09/11/2019 18:20 7.8 96 0.0 0 0.1 1.3 4.5 278
09/11/2019 18:30 7.7 96 0.0 0 0.0 1.6 5.9 277
09/11/2019 18:40 7.7 96 0.0 0 0.0 1.7 6.2 266
09/11/2019 18:50 7.6 96 0.0 0 0.1 1.1 3.9 275
09/11/2019 19:00 7.7 93 0.0 0 0.2 3.2 11.6 308
09/11/2019 19:10 7.8 86 0.0 0 0.8 7.6 27.2 326
09/11/2019 19:20 7.4 87 0.0 0 0.7 5.2 18.7 317
09/11/2019 19:30 7.1 88 0.0 0 0.3 5.0 17.8 318
09/11/2019 19:40 6.9 86 0.0 0 0.6 5.6 20.2 320
09/11/2019 19:50 6.7 89 0.0 0 0.8 2.6 9.3 310
09/11/2019 20:00 6.4 92 0.0 0 0.1 2.0 7.3 304
09/11/2019 20:10 6.3 91 0.0 0 0.4 2.6 9.3 305
09/11/2019 20:20 6.1 92 0.0 0 0.4 2.1 7.6 315
09/11/2019 20:30 6.0 93 0.0 0 1.1 1.9 6.7 314
09/11/2019 20:40 5.8 94 0.0 0 1.5 1.8 6.6 305
09/11/2019 20:50 5.5 92 0.0 0 1.8 3.6 12.9 315
09/11/2019 21:00 5.4 90 0.0 0 1.0 3.6 12.9 314
09/11/2019 21:10 5.1 93 0.0 0 0.0 2.1 7.7 281
09/11/2019 21:20 4.8 94 0.0 0 0.0 2.5 8.9 263
09/11/2019 21:30 4.6 95 0.0 0 0.0 1.5 5.3 281
09/11/2019 21:40 4.7 96 0.0 0 0.4 2.1 7.5 295
09/11/2019 21:50 5.1 95 0.0 0 0.7 2.4 8.8 289
09/11/2019 22:00 5.2 93 0.0 0 0.0 2.4 8.8 322
09/11/2019 22:10 5.5 93 0.0 0 0.0 2.6 9.4 306
09/11/2019 22:20 5.6 92 0.0 0 0.0 3.0 10.8 307
09/11/2019 22:30 5.6 92 0.0 0 0.0 2.4 8.7 302
09/11/2019 22:40 5.7 92 0.0 0 0.0 2.8 9.9 305
09/11/2019 22:50 5.9 91 0.0 0 0.0 2.7 9.6 311
09/11/2019 23:00 5.9 90 0.0 0 0.0 2.0 7.0 303
09/11/2019 23:10 5.5 92 0.0 0 0.0 1.1 3.9 301
09/11/2019 23:20 5.4 93 0.0 0 0.0 1.7 6.2 293
09/11/2019 23:30 5.4 93 0.0 0 0.0 1.8 6.5 283
09/11/2019 23:40 5.5 94 0.0 0 0.1 2.3 8.2 273
09/11/2019 23:50 5.4 93 0.0 0 0.1 2.7 9.9 279
Anterior Página 1 de 1 Siguiente

NOTA: Tipo de datos según el color:
   - Valores diarios o 10 minutos correctos
   - Valores diarios calculados a partir de un número de datos 10 minutos menor que 144 y mayor que 120, o de un número de datos semihorarios menor que 48 y mayor que 40 (caso de las estaciones de Riegos de Navarra y del MARM)
   - Valores diez minutos estimados


Contacto        Enlaces        Aviso legal